SBDN/PPB METAR and TAF weather

Enter ICAO airport designator
Station Type Date Time Source
SBDN METAR 2019/06/27 03:00 UTC NOAA

SBDN 270300Z 00000KT CAVOK 18/16 Q1017


Station Type Date Time Source
SBDN Decoded METAR 2019/06/27 03:00 UTC NOAA

Presidente Prudente, Brazil (SBDN) 22-07S 051-23W
Jun 26, 2019 - 11:00 PM EDT / 2019.06.27 0300 UTC
Wind: Calm:0
Visibility: greater than 7 mile(s):0
Temperature: 64 F (18 C)
Dew Point: 60 F (16 C)
Relative Humidity: 88%
Pressure (altimeter): 30.03 in. Hg (1017 hPa)
ob: SBDN 270300Z 00000KT CAVOK 18/16 Q1017
cycle: 3

Station Type Date Time Source
SBDN TAF 2019/06/27 00:33 UTC NOAA

TAF SBDN 262100Z 2700/2712 06007KT 9999 SCT040 TX17/2700Z TN16/2709Z
TEMPO 2700/2702 8000 RA BKN010 BKN030
BECMG 2702/2704 BKN010 PROB40 2706/2711 2000 BR
RMK PDJ

Example: see airport list